sensor_id;sensor_type;location;lat;lon;timestamp;P1;durP1;ratioP1;P2;durP2;ratioP2
20623;SDS011;10471;42.736;23.346;2023-01-01T00:00:02;385.10;;;197.93;;
20623;SDS011;10471;42.736;23.346;2023-01-01T00:02:30;368.20;;;182.87;;
20623;SDS011;10471;42.736;23.346;2023-01-01T00:04:56;369.63;;;189.37;;
20623;SDS011;10471;42.736;23.346;2023-01-01T00:07:21;329.90;;;162.97;;
20623;SDS011;10471;42.736;23.346;2023-01-01T00:09:47;336.67;;;161.13;;
20623;SDS011;10471;42.736;23.346;2023-01-01T00:12:31;334.33;;;165.33;;
20623;SDS011;10471;42.736;23.346;2023-01-01T00:14:57;315.43;;;154.57;;
20623;SDS011;10471;42.736;23.346;2023-01-01T00:17:23;325.37;;;154.93;;
20623;SDS011;10471;42.736;23.346;2023-01-01T00:19:48;318.30;;;155.70;;
20623;SDS011;10471;42.736;23.346;2023-01-01T00:22:13;323.07;;;159.27;;
20623;SDS011;10471;42.736;23.346;2023-01-01T00:24:39;306.90;;;150.73;;
20623;SDS011;10471;42.736;23.346;2023-01-01T00:27:04;294.70;;;141.47;;
20623;SDS011;10471;42.736;23.346;2023-01-01T00:29:30;307.83;;;147.13;;
20623;SDS011;10471;42.736;23.346;2023-01-01T00:31:56;354.97;;;175.37;;
20623;SDS011;10471;42.736;23.346;2023-01-01T00:34:21;380.97;;;187.43;;
20623;SDS011;10471;42.736;23.346;2023-01-01T00:36:47;425.83;;;152.97;;
20623;SDS011;10471;42.736;23.346;2023-01-01T00:39:12;378.70;;;151.50;;
20623;SDS011;10471;42.736;23.346;2023-01-01T00:41:38;367.10;;;147.03;;
20623;SDS011;10471;42.736;23.346;2023-01-01T00:44:03;448.73;;;165.50;;
20623;SDS011;10471;42.736;23.346;2023-01-01T00:46:28;587.03;;;181.93;;
20623;SDS011;10471;42.736;23.346;2023-01-01T00:48:54;460.70;;;167.63;;
20623;SDS011;10471;42.736;23.346;2023-01-01T00:51:19;425.50;;;162.73;;
20623;SDS011;10471;42.736;23.346;2023-01-01T00:53:44;416.60;;;165.53;;
20623;SDS011;10471;42.736;23.346;2023-01-01T00:56:10;409.00;;;162.33;;
20623;SDS011;10471;42.736;23.346;2023-01-01T00:58:35;408.73;;;175.10;;
20623;SDS011;10471;42.736;23.346;2023-01-01T01:01:01;373.27;;;169.57;;
20623;SDS011;10471;42.736;23.346;2023-01-01T01:03:26;427.27;;;175.13;;
20623;SDS011;10471;42.736;23.346;2023-01-01T01:08:21;422.73;;;203.50;;
20623;SDS011;10471;42.736;23.346;2023-01-01T01:10:46;418.60;;;209.00;;
20623;SDS011;10471;42.736;23.346;2023-01-01T01:13:12;476.07;;;243.67;;
20623;SDS011;10471;42.736;23.346;2023-01-01T01:15:37;506.00;;;254.93;;
20623;SDS011;10471;42.736;23.346;2023-01-01T01:18:03;494.00;;;255.20;;
20623;SDS011;10471;42.736;23.346;2023-01-01T01:20:28;650.83;;;343.20;;
20623;SDS011;10471;42.736;23.346;2023-01-01T01:22:53;545.87;;;284.77;;
20623;SDS011;10471;42.736;23.346;2023-01-01T01:25:19;437.70;;;228.03;;
20623;SDS011;10471;42.736;23.346;2023-01-01T01:27:44;456.97;;;225.57;;
20623;SDS011;10471;42.736;23.346;2023-01-01T01:30:09;466.37;;;246.93;;
20623;SDS011;10471;42.736;23.346;2023-01-01T01:32:35;518.27;;;268.47;;
20623;SDS011;10471;42.736;23.346;2023-01-01T01:35:00;498.87;;;258.43;;
20623;SDS011;10471;42.736;23.346;2023-01-01T01:37:26;457.93;;;238.47;;
20623;SDS011;10471;42.736;23.346;2023-01-01T01:39:52;494.00;;;257.97;;
20623;SDS011;10471;42.736;23.346;2023-01-01T01:42:17;584.47;;;308.27;;
20623;SDS011;10471;42.736;23.346;2023-01-01T01:44:54;561.47;;;302.37;;
20623;SDS011;10471;42.736;23.346;2023-01-01T01:47:30;691.90;;;353.53;;
20623;SDS011;10471;42.736;23.346;2023-01-01T01:53:08;576.63;;;303.00;;
20623;SDS011;10471;42.736;23.346;2023-01-01T01:55:47;543.73;;;286.13;;
20623;SDS011;10471;42.736;23.346;2023-01-01T01:58:15;527.27;;;279.10;;
20623;SDS011;10471;42.736;23.346;2023-01-01T02:00:41;502.13;;;261.93;;
20623;SDS011;10471;42.736;23.346;2023-01-01T02:03:08;481.73;;;252.23;;
20623;SDS011;10471;42.736;23.346;2023-01-01T02:05:38;470.40;;;251.90;;
20623;SDS011;10471;42.736;23.346;2023-01-01T02:08:05;462.77;;;241.40;;
20623;SDS011;10471;42.736;23.346;2023-01-01T02:10:32;442.90;;;234.47;;
20623;SDS011;10471;42.736;23.346;2023-01-01T02:12:58;434.57;;;223.40;;
20623;SDS011;10471;42.736;23.346;2023-01-01T02:15:28;431.33;;;218.00;;
20623;SDS011;10471;42.736;23.346;2023-01-01T02:20:47;424.77;;;215.03;;
20623;SDS011;10471;42.736;23.346;2023-01-01T02:24:14;383.87;;;190.87;;
20623;SDS011;10471;42.736;23.346;2023-01-01T02:29:11;369.13;;;184.87;;
20623;SDS011;10471;42.736;23.346;2023-01-01T02:31:46;378.80;;;176.70;;
20623;SDS011;10471;42.736;23.346;2023-01-01T02:34:17;374.33;;;168.47;;
20623;SDS011;10471;42.736;23.346;2023-01-01T02:36:47;352.87;;;164.20;;
20623;SDS011;10471;42.736;23.346;2023-01-01T02:39:16;333.67;;;155.03;;
20623;SDS011;10471;42.736;23.346;2023-01-01T02:41:47;312.47;;;143.23;;
20623;SDS011;10471;42.736;23.346;2023-01-01T02:44:17;320.17;;;144.10;;
20623;SDS011;10471;42.736;23.346;2023-01-01T02:46:45;306.77;;;133.23;;
20623;SDS011;10471;42.736;23.346;2023-01-01T02:49:10;276.63;;;128.93;;
20623;SDS011;10471;42.736;23.346;2023-01-01T03:05:17;270.63;;;118.53;;
20623;SDS011;10471;42.736;23.346;2023-01-01T03:10:18;266.27;;;116.40;;
20623;SDS011;10471;42.736;23.346;2023-01-01T03:17:56;322.67;;;114.43;;
20623;SDS011;10471;42.736;23.346;2023-01-01T03:20:27;343.57;;;110.00;;
20623;SDS011;10471;42.736;23.346;2023-01-01T03:22:57;407.27;;;116.47;;
20623;SDS011;10471;42.736;23.346;2023-01-01T03:25:31;293.90;;;108.80;;
20623;SDS011;10471;42.736;23.346;2023-01-01T03:28:02;410.80;;;117.83;;
20623;SDS011;10471;42.736;23.346;2023-01-01T03:30:32;419.13;;;119.00;;
20623;SDS011;10471;42.736;23.346;2023-01-01T03:33:03;506.03;;;129.43;;
20623;SDS011;10471;42.736;23.346;2023-01-01T03:37:58;233.17;;;102.90;;
20623;SDS011;10471;42.736;23.346;2023-01-01T03:40:26;459.63;;;124.27;;
20623;SDS011;10471;42.736;23.346;2023-01-01T03:42:54;337.57;;;112.97;;
20623;SDS011;10471;42.736;23.346;2023-01-01T03:45:30;314.00;;;117.87;;
20623;SDS011;10471;42.736;23.346;2023-01-01T03:48:00;306.60;;;112.63;;
20623;SDS011;10471;42.736;23.346;2023-01-01T03:50:30;322.83;;;115.50;;
20623;SDS011;10471;42.736;23.346;2023-01-01T03:58:41;291.27;;;103.73;;
20623;SDS011;10471;42.736;23.346;2023-01-01T04:03:58;274.37;;;100.97;;
20623;SDS011;10471;42.736;23.346;2023-01-01T04:06:25;246.73;;;94.43;;
20623;SDS011;10471;42.736;23.346;2023-01-01T04:08:51;313.37;;;103.60;;
20623;SDS011;10471;42.736;23.346;2023-01-01T04:11:21;344.33;;;110.03;;
20623;SDS011;10471;42.736;23.346;2023-01-01T04:14:10;289.90;;;101.40;;
20623;SDS011;10471;42.736;23.346;2023-01-01T04:16:35;327.10;;;108.87;;
20623;SDS011;10471;42.736;23.346;2023-01-01T04:19:01;267.30;;;101.33;;
20623;SDS011;10471;42.736;23.346;2023-01-01T04:21:26;313.90;;;104.50;;
20623;SDS011;10471;42.736;23.346;2023-01-01T04:23:51;284.70;;;99.97;;
20623;SDS011;10471;42.736;23.346;2023-01-01T04:26:17;302.83;;;101.57;;
20623;SDS011;10471;42.736;23.346;2023-01-01T04:28:42;365.63;;;112.30;;
20623;SDS011;10471;42.736;23.346;2023-01-01T04:31:08;452.37;;;120.37;;
20623;SDS011;10471;42.736;23.346;2023-01-01T04:33:33;423.17;;;125.77;;
20623;SDS011;10471;42.736;23.346;2023-01-01T04:36:03;338.47;;;110.87;;
20623;SDS011;10471;42.736;23.346;2023-01-01T04:38:30;373.73;;;113.10;;
20623;SDS011;10471;42.736;23.346;2023-01-01T04:40:57;324.50;;;104.30;;
20623;SDS011;10471;42.736;23.346;2023-01-01T04:43:24;360.43;;;107.07;;
20623;SDS011;10471;42.736;23.346;2023-01-01T04:46:00;332.83;;;103.53;;
20623;SDS011;10471;42.736;23.346;2023-01-01T04:48:27;343.67;;;102.50;;
20623;SDS011;10471;42.736;23.346;2023-01-01T04:50:57;341.13;;;106.03;;
20623;SDS011;10471;42.736;23.346;2023-01-01T04:53:24;458.40;;;111.50;;
20623;SDS011;10471;42.736;23.346;2023-01-01T04:55:53;546.23;;;117.30;;
20623;SDS011;10471;42.736;23.346;2023-01-01T04:58:18;469.77;;;104.33;;
20623;SDS011;10471;42.736;23.346;2023-01-01T05:00:47;397.83;;;97.67;;
20623;SDS011;10471;42.736;23.346;2023-01-01T05:03:13;423.93;;;99.27;;
20623;SDS011;10471;42.736;23.346;2023-01-01T05:05:38;396.17;;;99.83;;
20623;SDS011;10471;42.736;23.346;2023-01-01T05:08:04;321.00;;;94.23;;
20623;SDS011;10471;42.736;23.346;2023-01-01T05:10:29;271.87;;;88.83;;
20623;SDS011;10471;42.736;23.346;2023-01-01T05:12:55;373.27;;;94.83;;
20623;SDS011;10471;42.736;23.346;2023-01-01T05:15:20;304.70;;;93.70;;
20623;SDS011;10471;42.736;23.346;2023-01-01T05:17:45;332.87;;;102.43;;
20623;SDS011;10471;42.736;23.346;2023-01-01T05:20:11;258.87;;;92.90;;
20623;SDS011;10471;42.736;23.346;2023-01-01T05:22:36;224.17;;;91.37;;
20623;SDS011;10471;42.736;23.346;2023-01-01T05:25:01;276.50;;;102.77;;
20623;SDS011;10471;42.736;23.346;2023-01-01T05:27:27;272.20;;;88.47;;
20623;SDS011;10471;42.736;23.346;2023-01-01T05:29:52;230.50;;;91.83;;
20623;SDS011;10471;42.736;23.346;2023-01-01T05:32:18;259.47;;;95.03;;
20623;SDS011;10471;42.736;23.346;2023-01-01T05:34:43;288.20;;;99.07;;
20623;SDS011;10471;42.736;23.346;2023-01-01T05:37:08;270.70;;;100.73;;
20623;SDS011;10471;42.736;23.346;2023-01-01T05:39:34;324.80;;;110.37;;
20623;SDS011;10471;42.736;23.346;2023-01-01T05:42:01;299.63;;;107.87;;
20623;SDS011;10471;42.736;23.346;2023-01-01T05:44:26;206.73;;;91.50;;
20623;SDS011;10471;42.736;23.346;2023-01-01T05:46:51;278.77;;;99.80;;
20623;SDS011;10471;42.736;23.346;2023-01-01T05:49:17;287.67;;;97.20;;
20623;SDS011;10471;42.736;23.346;2023-01-01T05:51:42;233.97;;;92.53;;
20623;SDS011;10471;42.736;23.346;2023-01-01T05:54:08;369.73;;;101.33;;
20623;SDS011;10471;42.736;23.346;2023-01-01T05:56:34;363.23;;;101.67;;
20623;SDS011;10471;42.736;23.346;2023-01-01T05:59:00;376.47;;;105.50;;
20623;SDS011;10471;42.736;23.346;2023-01-01T06:01:26;355.20;;;102.67;;
20623;SDS011;10471;42.736;23.346;2023-01-01T06:03:53;360.43;;;107.33;;
20623;SDS011;10471;42.736;23.346;2023-01-01T06:06:21;444.50;;;108.70;;
20623;SDS011;10471;42.736;23.346;2023-01-01T06:08:52;265.57;;;96.63;;
20623;SDS011;10471;42.736;23.346;2023-01-01T06:11:19;358.07;;;106.63;;
20623;SDS011;10471;42.736;23.346;2023-01-01T06:13:44;261.67;;;95.07;;
20623;SDS011;10471;42.736;23.346;2023-01-01T06:16:10;389.97;;;120.20;;
20623;SDS011;10471;42.736;23.346;2023-01-01T06:18:35;522.67;;;135.30;;
20623;SDS011;10471;42.736;23.346;2023-01-01T06:23:30;337.13;;;105.87;;
20623;SDS011;10471;42.736;23.346;2023-01-01T06:25:55;399.20;;;112.27;;
20623;SDS011;10471;42.736;23.346;2023-01-01T06:28:20;282.87;;;100.67;;
20623;SDS011;10471;42.736;23.346;2023-01-01T06:30:46;368.43;;;101.73;;
20623;SDS011;10471;42.736;23.346;2023-01-01T06:33:11;283.93;;;97.40;;
20623;SDS011;10471;42.736;23.346;2023-01-01T06:35:36;285.67;;;102.80;;
20623;SDS011;10471;42.736;23.346;2023-01-01T06:38:02;305.93;;;112.87;;
20623;SDS011;10471;42.736;23.346;2023-01-01T06:40:27;238.27;;;103.97;;
20623;SDS011;10471;42.736;23.346;2023-01-01T06:42:53;288.97;;;106.60;;
20623;SDS011;10471;42.736;23.346;2023-01-01T06:45:18;274.37;;;112.60;;
20623;SDS011;10471;42.736;23.346;2023-01-01T06:47:43;285.43;;;117.77;;
20623;SDS011;10471;42.736;23.346;2023-01-01T06:50:09;304.47;;;112.53;;
20623;SDS011;10471;42.736;23.346;2023-01-01T06:52:34;323.97;;;108.80;;
20623;SDS011;10471;42.736;23.346;2023-01-01T06:55:00;340.97;;;113.73;;
20623;SDS011;10471;42.736;23.346;2023-01-01T06:57:25;330.27;;;114.13;;
20623;SDS011;10471;42.736;23.346;2023-01-01T06:59:50;393.73;;;118.23;;
20623;SDS011;10471;42.736;23.346;2023-01-01T07:02:16;343.87;;;114.60;;
20623;SDS011;10471;42.736;23.346;2023-01-01T07:04:41;323.90;;;118.97;;
20623;SDS011;10471;42.736;23.346;2023-01-01T07:07:06;286.30;;;106.17;;
20623;SDS011;10471;42.736;23.346;2023-01-01T07:09:32;312.07;;;105.30;;
20623;SDS011;10471;42.736;23.346;2023-01-01T07:11:57;349.27;;;105.17;;
20623;SDS011;10471;42.736;23.346;2023-01-01T07:14:23;307.23;;;100.17;;
20623;SDS011;10471;42.736;23.346;2023-01-01T07:16:48;247.67;;;97.57;;
20623;SDS011;10471;42.736;23.346;2023-01-01T07:19:13;228.60;;;85.90;;
20623;SDS011;10471;42.736;23.346;2023-01-01T07:21:42;254.40;;;91.30;;
20623;SDS011;10471;42.736;23.346;2023-01-01T07:24:10;212.83;;;86.90;;
20623;SDS011;10471;42.736;23.346;2023-01-01T07:26:37;235.53;;;85.80;;
20623;SDS011;10471;42.736;23.346;2023-01-01T07:29:02;234.97;;;88.10;;
20623;SDS011;10471;42.736;23.346;2023-01-01T07:31:28;211.17;;;99.47;;
20623;SDS011;10471;42.736;23.346;2023-01-01T07:33:53;197.37;;;82.37;;
20623;SDS011;10471;42.736;23.346;2023-01-01T07:36:19;178.83;;;80.90;;
20623;SDS011;10471;42.736;23.346;2023-01-01T07:38:44;175.03;;;72.27;;
20623;SDS011;10471;42.736;23.346;2023-01-01T07:41:10;155.50;;;67.57;;
20623;SDS011;10471;42.736;23.346;2023-01-01T07:43:35;158.27;;;69.33;;
20623;SDS011;10471;42.736;23.346;2023-01-01T07:46:01;135.60;;;65.57;;
20623;SDS011;10471;42.736;23.346;2023-01-01T07:48:26;157.33;;;59.60;;
20623;SDS011;10471;42.736;23.346;2023-01-01T07:50:52;167.07;;;71.13;;
20623;SDS011;10471;42.736;23.346;2023-01-01T07:53:17;187.53;;;75.37;;
20623;SDS011;10471;42.736;23.346;2023-01-01T07:55:43;166.47;;;76.23;;
20623;SDS011;10471;42.736;23.346;2023-01-01T07:58:10;174.73;;;76.70;;
20623;SDS011;10471;42.736;23.346;2023-01-01T08:00:36;211.73;;;82.97;;
20623;SDS011;10471;42.736;23.346;2023-01-01T08:03:02;199.20;;;86.80;;
20623;SDS011;10471;42.736;23.346;2023-01-01T08:05:28;249.00;;;101.80;;
20623;SDS011;10471;42.736;23.346;2023-01-01T08:07:54;237.50;;;88.37;;
20623;SDS011;10471;42.736;23.346;2023-01-01T08:10:20;242.90;;;87.07;;
20623;SDS011;10471;42.736;23.346;2023-01-01T08:12:46;174.47;;;80.83;;
20623;SDS011;10471;42.736;23.346;2023-01-01T08:15:11;201.63;;;82.30;;
20623;SDS011;10471;42.736;23.346;2023-01-01T08:17:37;167.70;;;72.63;;
20623;SDS011;10471;42.736;23.346;2023-01-01T08:20:03;149.03;;;67.23;;
20623;SDS011;10471;42.736;23.346;2023-01-01T08:22:29;158.63;;;70.53;;
20623;SDS011;10471;42.736;23.346;2023-01-01T08:24:55;161.07;;;72.53;;
20623;SDS011;10471;42.736;23.346;2023-01-01T08:27:20;171.53;;;77.40;;
20623;SDS011;10471;42.736;23.346;2023-01-01T08:29:46;176.43;;;75.10;;
20623;SDS011;10471;42.736;23.346;2023-01-01T08:32:11;208.23;;;79.00;;
20623;SDS011;10471;42.736;23.346;2023-01-01T08:34:37;174.93;;;77.67;;
20623;SDS011;10471;42.736;23.346;2023-01-01T08:37:02;212.30;;;82.07;;
20623;SDS011;10471;42.736;23.346;2023-01-01T08:39:28;183.73;;;76.97;;
20623;SDS011;10471;42.736;23.346;2023-01-01T08:41:54;185.53;;;84.67;;
20623;SDS011;10471;42.736;23.346;2023-01-01T08:44:19;193.00;;;86.30;;
20623;SDS011;10471;42.736;23.346;2023-01-01T08:46:45;189.10;;;84.63;;
20623;SDS011;10471;42.736;23.346;2023-01-01T08:49:10;181.37;;;83.13;;
20623;SDS011;10471;42.736;23.346;2023-01-01T08:51:36;193.77;;;86.57;;
20623;SDS011;10471;42.736;23.346;2023-01-01T08:54:01;184.33;;;85.77;;
20623;SDS011;10471;42.736;23.346;2023-01-01T08:56:27;191.93;;;87.97;;
20623;SDS011;10471;42.736;23.346;2023-01-01T08:58:53;187.83;;;92.53;;
20623;SDS011;10471;42.736;23.346;2023-01-01T09:01:18;180.17;;;88.13;;
20623;SDS011;10471;42.736;23.346;2023-01-01T09:03:47;178.30;;;85.37;;
20623;SDS011;10471;42.736;23.346;2023-01-01T09:06:13;199.87;;;93.33;;
20623;SDS011;10471;42.736;23.346;2023-01-01T09:08:39;183.03;;;90.40;;
20623;SDS011;10471;42.736;23.346;2023-01-01T09:11:05;190.20;;;96.07;;
20623;SDS011;10471;42.736;23.346;2023-01-01T09:13:30;181.87;;;91.30;;
20623;SDS011;10471;42.736;23.346;2023-01-01T09:15:56;183.13;;;93.40;;
20623;SDS011;10471;42.736;23.346;2023-01-01T09:18:22;186.83;;;93.90;;
20623;SDS011;10471;42.736;23.346;2023-01-01T09:20:48;197.73;;;98.17;;
20623;SDS011;10471;42.736;23.346;2023-01-01T09:23:13;232.77;;;123.00;;
20623;SDS011;10471;42.736;23.346;2023-01-01T09:25:39;217.73;;;112.00;;
20623;SDS011;10471;42.736;23.346;2023-01-01T09:28:05;207.20;;;105.40;;
20623;SDS011;10471;42.736;23.346;2023-01-01T09:30:32;198.70;;;97.20;;
20623;SDS011;10471;42.736;23.346;2023-01-01T09:32:58;190.33;;;98.80;;
20623;SDS011;10471;42.736;23.346;2023-01-01T09:35:23;192.97;;;101.90;;
20623;SDS011;10471;42.736;23.346;2023-01-01T09:37:49;189.97;;;103.87;;
20623;SDS011;10471;42.736;23.346;2023-01-01T09:40:23;203.50;;;107.07;;
20623;SDS011;10471;42.736;23.346;2023-01-01T09:43:03;213.17;;;111.40;;
20623;SDS011;10471;42.736;23.346;2023-01-01T09:45:39;204.80;;;105.53;;
20623;SDS011;10471;42.736;23.346;2023-01-01T09:48:19;209.30;;;111.30;;
20623;SDS011;10471;42.736;23.346;2023-01-01T09:50:45;218.00;;;114.17;;
20623;SDS011;10471;42.736;23.346;2023-01-01T09:55:58;198.20;;;102.57;;
20623;SDS011;10471;42.736;23.346;2023-01-01T09:58:26;186.27;;;102.07;;
20623;SDS011;10471;42.736;23.346;2023-01-01T10:00:57;182.27;;;95.20;;
20623;SDS011;10471;42.736;23.346;2023-01-01T10:06:29;162.70;;;89.37;;
20623;SDS011;10471;42.736;23.346;2023-01-01T10:14:16;162.03;;;93.77;;
20623;SDS011;10471;42.736;23.346;2023-01-01T10:16:49;164.27;;;88.53;;
20623;SDS011;10471;42.736;23.346;2023-01-01T10:19:52;161.73;;;87.27;;
20623;SDS011;10471;42.736;23.346;2023-01-01T10:22:18;155.53;;;86.27;;
20623;SDS011;10471;42.736;23.346;2023-01-01T10:24:49;154.53;;;82.13;;
20623;SDS011;10471;42.736;23.346;2023-01-01T10:27:31;168.83;;;88.43;;
20623;SDS011;10471;42.736;23.346;2023-01-01T10:30:00;161.93;;;89.10;;
20623;SDS011;10471;42.736;23.346;2023-01-01T10:32:34;169.67;;;89.60;;
20623;SDS011;10471;42.736;23.346;2023-01-01T10:35:01;151.90;;;86.27;;
20623;SDS011;10471;42.736;23.346;2023-01-01T10:37:35;164.97;;;87.93;;
20623;SDS011;10471;42.736;23.346;2023-01-01T10:40:05;157.23;;;85.00;;
20623;SDS011;10471;42.736;23.346;2023-01-01T10:42:38;157.07;;;86.67;;
20623;SDS011;10471;42.736;23.346;2023-01-01T10:45:04;134.37;;;72.23;;
20623;SDS011;10471;42.736;23.346;2023-01-01T10:47:30;121.13;;;65.07;;
20623;SDS011;10471;42.736;23.346;2023-01-01T10:49:59;120.80;;;66.90;;
20623;SDS011;10471;42.736;23.346;2023-01-01T10:52:37;110.07;;;64.17;;
20623;SDS011;10471;42.736;23.346;2023-01-01T10:55:18;117.67;;;67.67;;
20623;SDS011;10471;42.736;23.346;2023-01-01T10:57:45;103.97;;;61.77;;
20623;SDS011;10471;42.736;23.346;2023-01-01T11:02:42;102.23;;;60.67;;
20623;SDS011;10471;42.736;23.346;2023-01-01T11:05:13;108.53;;;59.87;;
20623;SDS011;10471;42.736;23.346;2023-01-01T11:07:44;94.57;;;53.30;;
20623;SDS011;10471;42.736;23.346;2023-01-01T11:10:22;86.83;;;49.27;;
20623;SDS011;10471;42.736;23.346;2023-01-01T11:12:50;82.50;;;49.03;;
20623;SDS011;10471;42.736;23.346;2023-01-01T11:17:48;88.23;;;52.93;;
20623;SDS011;10471;42.736;23.346;2023-01-01T11:20:17;79.47;;;45.47;;
20623;SDS011;10471;42.736;23.346;2023-01-01T11:22:48;78.27;;;47.30;;
20623;SDS011;10471;42.736;23.346;2023-01-01T11:27:47;78.70;;;49.23;;
20623;SDS011;10471;42.736;23.346;2023-01-01T11:32:55;78.97;;;45.60;;
20623;SDS011;10471;42.736;23.346;2023-01-01T11:35:24;81.03;;;49.27;;
20623;SDS011;10471;42.736;23.346;2023-01-01T11:37:53;78.10;;;47.03;;
20623;SDS011;10471;42.736;23.346;2023-01-01T11:40:21;79.60;;;48.23;;
20623;SDS011;10471;42.736;23.346;2023-01-01T11:42:55;77.40;;;47.43;;
20623;SDS011;10471;42.736;23.346;2023-01-01T11:45:25;72.87;;;43.70;;
20623;SDS011;10471;42.736;23.346;2023-01-01T11:47:55;77.37;;;47.07;;
20623;SDS011;10471;42.736;23.346;2023-01-01T11:50:26;77.03;;;45.50;;
20623;SDS011;10471;42.736;23.346;2023-01-01T11:52:55;82.97;;;47.03;;
20623;SDS011;10471;42.736;23.346;2023-01-01T11:58:14;70.77;;;44.57;;
20623;SDS011;10471;42.736;23.346;2023-01-01T12:00:41;78.07;;;47.73;;
20623;SDS011;10471;42.736;23.346;2023-01-01T12:05:54;68.33;;;43.23;;
20623;SDS011;10471;42.736;23.346;2023-01-01T12:08:36;70.97;;;42.77;;
20623;SDS011;10471;42.736;23.346;2023-01-01T12:11:18;67.43;;;44.33;;
20623;SDS011;10471;42.736;23.346;2023-01-01T12:14:34;66.67;;;41.73;;
20623;SDS011;10471;42.736;23.346;2023-01-01T12:16:51;60.63;;;39.63;;
20623;SDS011;10471;42.736;23.346;2023-01-01T12:21:57;53.97;;;34.70;;
20623;SDS011;10471;42.736;23.346;2023-01-01T12:24:27;51.27;;;32.67;;
20623;SDS011;10471;42.736;23.346;2023-01-01T12:27:04;53.20;;;33.20;;
20623;SDS011;10471;42.736;23.346;2023-01-01T12:42:25;56.97;;;34.83;;
20623;SDS011;10471;42.736;23.346;2023-01-01T12:50:18;58.63;;;36.40;;
20623;SDS011;10471;42.736;23.346;2023-01-01T12:53:02;60.40;;;36.53;;
20623;SDS011;10471;42.736;23.346;2023-01-01T12:58:25;59.80;;;37.60;;
20623;SDS011;10471;42.736;23.346;2023-01-01T13:00:59;59.37;;;37.57;;
20623;SDS011;10471;42.736;23.346;2023-01-01T13:03:40;60.63;;;36.37;;
20623;SDS011;10471;42.736;23.346;2023-01-01T13:06:08;58.93;;;38.23;;
20623;SDS011;10471;42.736;23.346;2023-01-01T13:08:36;59.93;;;39.03;;
20623;SDS011;10471;42.736;23.346;2023-01-01T13:11:03;62.10;;;38.47;;
20623;SDS011;10471;42.736;23.346;2023-01-01T13:13:30;63.53;;;38.73;;
20623;SDS011;10471;42.736;23.346;2023-01-01T13:15:56;64.53;;;39.00;;
20623;SDS011;10471;42.736;23.346;2023-01-01T13:18:29;58.63;;;38.83;;
20623;SDS011;10471;42.736;23.346;2023-01-01T13:20:59;62.30;;;37.67;;
20623;SDS011;10471;42.736;23.346;2023-01-01T13:26:47;58.67;;;37.43;;
20623;SDS011;10471;42.736;23.346;2023-01-01T13:39:49;51.07;;;33.43;;
20623;SDS011;10471;42.736;23.346;2023-01-01T13:45:33;50.67;;;32.57;;
20623;SDS011;10471;42.736;23.346;2023-01-01T14:02:19;51.17;;;31.73;;
20623;SDS011;10471;42.736;23.346;2023-01-01T14:04:48;48.70;;;30.60;;
20623;SDS011;10471;42.736;23.346;2023-01-01T14:15:35;44.17;;;30.63;;
20623;SDS011;10471;42.736;23.346;2023-01-01T14:18:04;51.17;;;32.73;;
20623;SDS011;10471;42.736;23.346;2023-01-01T14:20:36;50.23;;;32.37;;
20623;SDS011;10471;42.736;23.346;2023-01-01T14:23:10;51.40;;;32.50;;
20623;SDS011;10471;42.736;23.346;2023-01-01T14:25:40;47.97;;;31.53;;
20623;SDS011;10471;42.736;23.346;2023-01-01T14:28:11;49.67;;;32.10;;
20623;SDS011;10471;42.736;23.346;2023-01-01T14:30:50;53.37;;;31.83;;
20623;SDS011;10471;42.736;23.346;2023-01-01T14:33:21;49.70;;;32.10;;
20623;SDS011;10471;42.736;23.346;2023-01-01T14:36:13;56.80;;;34.63;;
20623;SDS011;10471;42.736;23.346;2023-01-01T14:38:52;79.00;;;43.67;;
20623;SDS011;10471;42.736;23.346;2023-01-01T14:43:57;101.07;;;53.93;;
20623;SDS011;10471;42.736;23.346;2023-01-01T14:46:28;89.97;;;50.43;;
20623;SDS011;10471;42.736;23.346;2023-01-01T14:48:59;71.60;;;42.13;;
20623;SDS011;10471;42.736;23.346;2023-01-01T14:51:31;54.03;;;35.03;;
20623;SDS011;10471;42.736;23.346;2023-01-01T14:53:57;47.83;;;30.20;;
20623;SDS011;10471;42.736;23.346;2023-01-01T14:56:29;45.77;;;29.10;;
20623;SDS011;10471;42.736;23.346;2023-01-01T15:01:33;47.90;;;31.10;;
20623;SDS011;10471;42.736;23.346;2023-01-01T15:04:00;45.73;;;30.87;;
20623;SDS011;10471;42.736;23.346;2023-01-01T15:06:27;47.13;;;30.50;;
20623;SDS011;10471;42.736;23.346;2023-01-01T15:08:53;46.30;;;29.17;;
20623;SDS011;10471;42.736;23.346;2023-01-01T15:11:19;47.03;;;28.27;;
20623;SDS011;10471;42.736;23.346;2023-01-01T15:13:52;49.40;;;30.47;;
20623;SDS011;10471;42.736;23.346;2023-01-01T15:16:19;43.27;;;26.10;;
20623;SDS011;10471;42.736;23.346;2023-01-01T15:18:45;41.63;;;26.37;;
20623;SDS011;10471;42.736;23.346;2023-01-01T15:21:22;40.97;;;26.93;;
20623;SDS011;10471;42.736;23.346;2023-01-01T15:23:57;44.60;;;27.70;;
20623;SDS011;10471;42.736;23.346;2023-01-01T15:29:06;70.97;;;44.77;;
20623;SDS011;10471;42.736;23.346;2023-01-01T15:31:45;78.53;;;51.47;;
20623;SDS011;10471;42.736;23.346;2023-01-01T15:34:40;71.77;;;44.43;;
20623;SDS011;10471;42.736;23.346;2023-01-01T15:37:18;80.17;;;48.63;;
20623;SDS011;10471;42.736;23.346;2023-01-01T15:45:29;140.33;;;88.20;;
20623;SDS011;10471;42.736;23.346;2023-01-01T15:48:18;198.20;;;117.97;;
20623;SDS011;10471;42.736;23.346;2023-01-01T15:58:31;200.57;;;109.20;;
20623;SDS011;10471;42.736;23.346;2023-01-01T16:01:03;195.93;;;105.33;;
20623;SDS011;10471;42.736;23.346;2023-01-01T16:03:30;231.13;;;117.93;;
20623;SDS011;10471;42.736;23.346;2023-01-01T16:05:58;240.63;;;125.30;;
20623;SDS011;10471;42.736;23.346;2023-01-01T16:08:24;287.53;;;141.30;;
20623;SDS011;10471;42.736;23.346;2023-01-01T16:10:50;203.67;;;104.27;;
20623;SDS011;10471;42.736;23.346;2023-01-01T16:13:16;218.57;;;107.50;;
20623;SDS011;10471;42.736;23.346;2023-01-01T16:18:18;205.83;;;107.37;;
20623;SDS011;10471;42.736;23.346;2023-01-01T16:20:44;186.83;;;98.10;;
20623;SDS011;10471;42.736;23.346;2023-01-01T16:23:10;196.50;;;107.03;;
20623;SDS011;10471;42.736;23.346;2023-01-01T16:25:36;196.23;;;103.67;;
20623;SDS011;10471;42.736;23.346;2023-01-01T16:28:01;216.37;;;105.17;;
20623;SDS011;10471;42.736;23.346;2023-01-01T16:30:28;245.30;;;121.07;;
20623;SDS011;10471;42.736;23.346;2023-01-01T16:32:53;204.50;;;102.33;;
20623;SDS011;10471;42.736;23.346;2023-01-01T16:35:19;194.70;;;100.07;;
20623;SDS011;10471;42.736;23.346;2023-01-01T16:37:45;213.10;;;115.83;;
20623;SDS011;10471;42.736;23.346;2023-01-01T16:40:10;235.37;;;132.13;;